createdAt,value
2019-06-10T00:02:26.840Z,21.12
2019-06-10T00:05:00.287Z,20.94
2019-06-10T00:07:31.957Z,20.96
2019-06-10T00:10:07.436Z,20.97
2019-06-10T00:12:38.842Z,21.13
2019-06-10T00:15:11.143Z,21.16
2019-06-10T00:17:54.881Z,21.16
2019-06-10T00:20:17.311Z,21.20
2019-06-10T00:22:51.353Z,21.08
2019-06-10T00:25:21.946Z,21.08
2019-06-10T00:27:53.736Z,21.01
2019-06-10T00:30:27.040Z,20.88
2019-06-10T00:33:00.567Z,20.85
2019-06-10T00:35:32.766Z,20.75
2019-06-10T00:38:07.257Z,20.74
2019-06-10T00:40:37.832Z,20.72
2019-06-10T00:43:13.134Z,20.73
2019-06-10T00:45:43.688Z,20.69
2019-06-10T00:48:25.220Z,20.62
2019-06-10T00:50:48.228Z,20.63
2019-06-10T00:53:21.188Z,20.71
2019-06-10T00:55:52.770Z,20.60
2019-06-10T00:58:24.626Z,20.54
2019-06-10T01:00:56.589Z,20.44
2019-06-10T01:03:31.146Z,20.33
2019-06-10T01:06:03.043Z,20.21
2019-06-10T01:08:35.141Z,20.27
2019-06-10T01:11:14.271Z,20.31
2019-06-10T01:13:41.460Z,20.29
2019-06-10T01:16:15.234Z,20.26
2019-06-10T01:18:50.328Z,20.24
2019-06-10T01:21:21.880Z,20.25
2019-06-10T01:23:53.890Z,20.26
2019-06-10T01:26:27.891Z,20.25
2019-06-10T01:29:00.978Z,20.23
2019-06-10T01:31:33.770Z,20.30
2019-06-10T01:34:05.841Z,20.28
2019-06-10T01:36:37.800Z,20.21
2019-06-10T01:39:12.020Z,20.13
2019-06-10T01:41:43.577Z,20.02
2019-06-10T01:44:16.445Z,20.00
2019-06-10T01:46:48.921Z,19.97
2019-06-10T01:49:21.442Z,19.97
2019-06-10T01:51:53.767Z,19.99
2019-06-10T01:54:25.756Z,20.01
2019-06-10T01:56:57.688Z,20.04
2019-06-10T01:59:31.126Z,20.03
2019-06-10T02:02:07.555Z,20.07
2019-06-10T02:04:41.139Z,20.04
2019-06-10T02:07:15.577Z,20.07
2019-06-10T02:09:46.413Z,20.06
2019-06-10T02:12:20.138Z,20.13
2019-06-10T02:14:51.473Z,20.11
2019-06-10T02:17:24.043Z,20.13
2019-06-10T02:19:55.904Z,20.13
2019-06-10T02:22:31.816Z,20.12
2019-06-10T02:25:03.001Z,20.22
2019-06-10T02:27:34.870Z,20.17
2019-06-10T02:30:14.948Z,20.23
2019-06-10T02:32:42.742Z,20.29
2019-06-10T02:35:26.309Z,20.32
2019-06-10T02:37:48.065Z,20.43
2019-06-10T02:40:30.903Z,20.43
2019-06-10T02:42:56.166Z,20.45
2019-06-10T02:45:33.692Z,20.52
2019-06-10T02:48:04.226Z,20.58
2019-06-10T02:50:54.058Z,20.66
2019-06-10T02:53:30.742Z,20.72
2019-06-10T02:55:58.710Z,20.76
2019-06-10T02:58:38.494Z,20.94
2019-06-10T03:01:04.713Z,21.16
2019-06-10T03:03:43.829Z,21.57
2019-06-10T03:06:13.627Z,22.15
2019-06-10T03:08:44.250Z,23.34
2019-06-10T03:11:16.567Z,24.38
2019-06-10T03:13:49.510Z,24.98
2019-06-10T03:16:29.157Z,25.87
2019-06-10T03:19:02.932Z,26.19
2019-06-10T03:21:34.613Z,26.92
2019-06-10T03:24:08.532Z,26.91
2019-06-10T03:26:42.657Z,26.90
2019-06-10T03:29:13.373Z,26.30
2019-06-10T03:31:48.037Z,27.57
2019-06-10T03:34:23.221Z,28.10
2019-06-10T03:36:53.509Z,28.12
2019-06-10T03:39:26.919Z,27.67
2019-06-10T03:41:58.918Z,27.55
2019-06-10T03:44:33.652Z,27.17
2019-06-10T03:47:05.913Z,27.50
2019-06-10T03:49:49.906Z,27.83
2019-06-10T03:52:12.832Z,27.76
2019-06-10T03:54:44.265Z,28.00
2019-06-10T03:57:15.613Z,28.46
2019-06-10T03:59:47.469Z,27.98
2019-06-10T04:02:19.419Z,27.75
2019-06-10T04:04:52.327Z,26.91
2019-06-10T04:07:27.760Z,27.79
2019-06-10T04:09:57.065Z,27.72
2019-06-10T04:12:29.547Z,27.97
2019-06-10T04:15:03.700Z,28.23
2019-06-10T04:17:36.461Z,28.14
2019-06-10T04:20:12.474Z,29.28
2019-06-10T04:22:44.461Z,28.72
2019-06-10T04:25:17.651Z,29.12
2019-06-10T04:27:49.193Z,28.78
2019-06-10T04:30:24.350Z,28.52
2019-06-10T04:32:55.527Z,28.86
2019-06-10T04:35:27.977Z,29.47
2019-06-10T04:38:03.193Z,29.77
2019-06-10T04:40:35.675Z,28.97
2019-06-10T04:43:08.040Z,28.92
2019-06-10T04:45:42.836Z,28.86
2019-06-10T04:48:13.808Z,28.61
2019-06-10T04:50:46.595Z,28.80
2019-06-10T04:53:18.784Z,30.22
2019-06-10T04:55:52.308Z,30.45
2019-06-10T04:58:27.597Z,29.87
2019-06-10T05:00:59.037Z,30.78
2019-06-10T05:03:32.873Z,30.25
2019-06-10T05:06:05.329Z,30.44
2019-06-10T05:08:37.592Z,30.86
2019-06-10T05:11:12.653Z,30.32
2019-06-10T05:13:43.873Z,30.00
2019-06-10T05:16:17.575Z,30.47
2019-06-10T05:18:54.222Z,30.69
2019-06-10T05:21:26.704Z,31.03
2019-06-10T05:23:57.580Z,30.68
2019-06-10T05:26:32.737Z,30.24
2019-06-10T05:29:04.558Z,30.62
2019-06-10T05:31:37.033Z,30.92
2019-06-10T05:34:13.188Z,31.64
2019-06-10T05:36:44.549Z,31.39
2019-06-10T05:39:17.531Z,30.94
2019-06-10T05:41:50.835Z,31.69
2019-06-10T05:44:28.093Z,31.52
2019-06-10T05:47:03.420Z,32.11
2019-06-10T05:49:36.315Z,31.72
2019-06-10T05:52:12.499Z,30.81
2019-06-10T05:54:44.253Z,31.25
2019-06-10T05:57:16.624Z,31.35
2019-06-10T05:59:48.990Z,31.88
2019-06-10T06:02:22.337Z,30.71
2019-06-10T06:04:54.770Z,31.17
2019-06-10T06:07:27.145Z,30.31
2019-06-10T06:09:59.516Z,30.47
2019-06-10T06:12:35.818Z,30.53
2019-06-10T06:15:08.199Z,31.44
2019-06-10T06:17:40.328Z,30.43
2019-06-10T06:20:13.789Z,30.55
2019-06-10T06:22:48.315Z,30.45
2019-06-10T06:25:23.981Z,30.31
2019-06-10T06:27:54.715Z,29.97
2019-06-10T06:30:28.118Z,29.17
2019-06-10T06:33:02.901Z,29.48
2019-06-10T06:35:40.890Z,29.49
2019-06-10T06:38:08.346Z,30.07
2019-06-10T06:40:43.545Z,30.66
2019-06-10T06:43:15.130Z,30.55
2019-06-10T06:45:47.487Z,30.36
2019-06-10T06:48:19.839Z,31.05
2019-06-10T06:51:04.398Z,31.28
2019-06-10T06:53:37.298Z,31.93
2019-06-10T06:56:03.851Z,31.76
2019-06-10T06:58:52.692Z,31.20
2019-06-10T07:01:27.713Z,30.62
2019-06-10T07:04:02.435Z,30.90
2019-06-10T07:06:36.038Z,29.23
2019-06-10T07:09:08.992Z,29.10
2019-06-10T07:11:44.930Z,29.63
2019-06-10T07:14:15.628Z,29.39
2019-06-10T07:16:47.989Z,28.94
2019-06-10T07:19:22.511Z,28.75
2019-06-10T07:22:08.307Z,28.80
2019-06-10T07:24:27.280Z,28.65
2019-06-10T07:27:02.591Z,28.99
2019-06-10T07:29:37.061Z,29.07
2019-06-10T07:32:08.059Z,28.99
2019-06-10T07:34:40.481Z,28.58
2019-06-10T07:37:13.695Z,28.95
2019-06-10T07:39:45.518Z,28.99
2019-06-10T07:42:17.856Z,28.83
2019-06-10T07:44:49.515Z,28.73
2019-06-10T07:47:23.129Z,28.93
2019-06-10T07:49:55.686Z,29.35
2019-06-10T07:52:27.558Z,29.43
2019-06-10T07:55:02.512Z,29.30
2019-06-10T07:57:35.650Z,29.45
2019-06-10T08:00:12.757Z,29.27
2019-06-10T08:02:45.961Z,29.57
2019-06-10T08:05:17.731Z,29.74
2019-06-10T08:07:50.175Z,29.20
2019-06-10T08:10:23.266Z,29.35
2019-06-10T08:12:55.035Z,29.87
2019-06-10T08:15:27.296Z,29.89
2019-06-10T08:17:59.882Z,29.72
2019-06-10T08:20:47.620Z,29.69
2019-06-10T08:23:23.350Z,29.75
2019-06-10T08:25:57.569Z,29.89
2019-06-10T08:28:27.076Z,30.15
2019-06-10T08:31:03.684Z,30.30
2019-06-10T08:33:36.973Z,30.10
2019-06-10T08:36:08.498Z,30.08
2019-06-10T08:38:43.474Z,30.34
2019-06-10T08:41:13.746Z,30.21
2019-06-10T08:43:48.202Z,30.14
2019-06-10T08:46:19.415Z,30.39
2019-06-10T08:48:52.608Z,30.02
2019-06-10T08:51:24.465Z,29.97
2019-06-10T08:53:56.222Z,30.16
2019-06-10T08:56:27.890Z,30.09
2019-06-10T08:59:00.145Z,30.45
2019-06-10T09:01:33.408Z,30.64
2019-06-10T09:04:05.303Z,30.74
2019-06-10T09:06:38.795Z,30.55
2019-06-10T09:09:12.886Z,30.60
2019-06-10T09:11:47.929Z,30.66
2019-06-10T09:14:18.893Z,30.63
2019-06-10T09:16:54.056Z,30.60
2019-06-10T09:19:24.975Z,30.79
2019-06-10T09:21:56.903Z,30.88
2019-06-10T09:24:29.399Z,30.91
2019-06-10T09:27:02.896Z,30.95
2019-06-10T09:29:35.174Z,30.90
2019-06-10T09:32:07.857Z,30.89
2019-06-10T09:34:43.094Z,30.95
2019-06-10T09:37:15.354Z,31.21
2019-06-10T09:39:55.935Z,31.07
2019-06-10T09:42:24.096Z,31.08
2019-06-10T09:44:57.120Z,31.36
2019-06-10T09:47:30.271Z,31.38
2019-06-10T09:50:03.318Z,30.94
2019-06-10T09:52:35.530Z,30.89
2019-06-10T09:55:08.768Z,30.93
2019-06-10T09:57:43.687Z,31.20
2019-06-10T10:00:17.879Z,31.23
2019-06-10T10:02:52.060Z,31.23
2019-06-10T10:05:24.367Z,31.30
2019-06-10T10:07:57.441Z,31.44
2019-06-10T10:10:39.618Z,31.25
2019-06-10T10:13:13.056Z,31.17
2019-06-10T10:15:45.742Z,31.17
2019-06-10T10:18:17.714Z,31.36
2019-06-10T10:20:51.557Z,31.51
2019-06-10T10:23:23.817Z,31.57
2019-06-10T10:25:57.180Z,31.49
2019-06-10T10:28:29.550Z,31.21
2019-06-10T10:31:04.471Z,31.21
2019-06-10T10:33:35.726Z,31.43
2019-06-10T10:36:08.608Z,31.36
2019-06-10T10:38:40.655Z,31.38
2019-06-10T10:41:13.526Z,31.38
2019-06-10T10:43:48.860Z,31.38
2019-06-10T10:46:22.922Z,31.38
2019-06-10T10:48:56.306Z,31.34
2019-06-10T10:51:27.742Z,31.66
2019-06-10T10:54:20.711Z,31.60
2019-06-10T10:56:34.101Z,31.58
2019-06-10T10:59:06.157Z,31.69
2019-06-10T11:01:38.156Z,31.81
2019-06-10T11:04:13.021Z,31.90
2019-06-10T11:06:44.583Z,31.91
2019-06-10T11:09:22.029Z,31.72
2019-06-10T11:11:55.052Z,31.73
2019-06-10T11:14:28.214Z,31.82
2019-06-10T11:17:02.796Z,31.78
2019-06-10T11:19:34.512Z,31.99
2019-06-10T11:22:06.485Z,32.15
2019-06-10T11:24:42.049Z,31.96
2019-06-10T11:27:12.824Z,31.91
2019-06-10T11:29:44.726Z,31.89
2019-06-10T11:32:17.954Z,32.11
2019-06-10T11:34:56.076Z,32.25
2019-06-10T11:37:25.410Z,32.35
2019-06-10T11:39:57.396Z,32.43
2019-06-10T11:42:29.289Z,32.41
2019-06-10T11:45:02.940Z,32.57
2019-06-10T11:47:34.957Z,32.47
2019-06-10T11:50:07.370Z,32.13
2019-06-10T11:52:39.450Z,32.03
2019-06-10T11:55:18.445Z,32.07
2019-06-10T11:57:45.132Z,32.09
2019-06-10T12:00:18.845Z,32.01
2019-06-10T12:02:53.179Z,32.01
2019-06-10T12:05:25.358Z,32.03
2019-06-10T12:07:59.791Z,31.98
2019-06-10T12:10:33.058Z,32.23
2019-06-10T12:13:07.312Z,32.52
2019-06-10T12:16:19.906Z,32.40
2019-06-10T12:18:13.653Z,32.19
2019-06-10T12:20:45.560Z,32.37
2019-06-10T12:23:19.008Z,32.47
2019-06-10T12:25:54.595Z,32.47
2019-06-10T12:28:26.180Z,32.35
2019-06-10T12:31:01.482Z,32.59
2019-06-10T12:33:33.698Z,32.63
2019-06-10T12:36:07.194Z,32.62
2019-06-10T12:38:43.040Z,32.42
2019-06-10T12:41:15.438Z,32.46
2019-06-10T12:43:53.082Z,32.53
2019-06-10T12:46:23.838Z,32.69
2019-06-10T12:49:02.082Z,32.76
2019-06-10T12:51:32.801Z,32.55
2019-06-10T12:54:06.370Z,32.38
2019-06-10T12:56:38.622Z,32.32
2019-06-10T12:59:13.313Z,32.38
2019-06-10T13:01:46.763Z,32.41
2019-06-10T13:04:18.642Z,32.39
2019-06-10T13:06:52.721Z,32.37
2019-06-10T13:09:25.975Z,32.15
2019-06-10T13:11:57.936Z,32.23
2019-06-10T13:14:29.808Z,32.40
2019-06-10T13:17:02.973Z,32.22
2019-06-10T13:19:35.506Z,32.21
2019-06-10T13:22:08.875Z,32.29
2019-06-10T13:24:42.363Z,32.29
2019-06-10T13:27:14.669Z,32.32
2019-06-10T13:29:47.979Z,32.32
2019-06-10T13:32:20.595Z,32.20
2019-06-10T13:34:54.207Z,32.02
2019-06-10T13:37:26.046Z,31.81
2019-06-10T13:39:59.374Z,31.70
2019-06-10T13:42:36.052Z,31.51
2019-06-10T13:45:09.706Z,31.42
2019-06-10T13:47:43.037Z,31.26
2019-06-10T13:50:19.229Z,31.29
2019-06-10T13:52:53.346Z,31.29
2019-06-10T13:55:25.884Z,31.21
2019-06-10T13:57:59.517Z,31.23
2019-06-10T14:00:45.796Z,31.26
2019-06-10T14:03:11.264Z,31.70
2019-06-10T14:05:44.877Z,32.02
2019-06-10T14:08:18.511Z,32.00
2019-06-10T14:10:50.377Z,32.01
2019-06-10T14:13:23.560Z,31.97
2019-06-10T14:15:55.900Z,32.20
2019-06-10T14:18:28.335Z,32.30
2019-06-10T14:21:05.240Z,31.86
2019-06-10T14:23:34.506Z,31.49
2019-06-10T14:26:08.364Z,31.40
2019-06-10T14:28:41.797Z,31.05
2019-06-10T14:31:37.415Z,30.96
2019-06-10T14:33:47.582Z,30.86
2019-06-10T14:36:22.173Z,30.81
2019-06-10T14:38:54.373Z,30.69
2019-06-10T14:41:26.537Z,30.62
2019-06-10T14:43:58.401Z,30.70
2019-06-10T14:46:30.271Z,30.61
2019-06-10T14:49:02.411Z,30.57
2019-06-10T14:51:34.401Z,30.57
2019-06-10T14:54:07.195Z,30.43
2019-06-10T14:56:50.698Z,30.42
2019-06-10T14:59:14.553Z,30.42
2019-06-10T15:01:45.923Z,30.40
2019-06-10T15:04:19.658Z,30.36
2019-06-10T15:06:54.603Z,30.27
2019-06-10T15:09:25.264Z,30.17
2019-06-10T15:11:57.084Z,30.22
2019-06-10T15:14:28.949Z,30.38
2019-06-10T15:17:03.218Z,30.43
2019-06-10T15:19:34.591Z,30.52
2019-06-10T15:22:07.511Z,30.52
2019-06-10T15:24:39.141Z,30.55
2019-06-10T15:27:19.279Z,30.44
2019-06-10T15:29:49.705Z,30.47
2019-06-10T15:32:33.837Z,30.36
2019-06-10T15:34:56.406Z,30.27
2019-06-10T15:37:29.065Z,29.97
2019-06-10T15:40:03.472Z,30.00
2019-06-10T15:42:34.125Z,30.03
2019-06-10T15:45:09.817Z,30.04
2019-06-10T15:47:43.067Z,30.07
2019-06-10T15:50:18.739Z,29.94
2019-06-10T15:52:52.427Z,29.88
2019-06-10T15:55:49.259Z,29.85
2019-06-10T15:58:02.062Z,29.82
2019-06-10T16:00:34.158Z,29.72
2019-06-10T16:03:06.115Z,29.54
2019-06-10T16:05:37.969Z,29.46
2019-06-10T16:08:12.574Z,29.41
2019-06-10T16:10:44.148Z,29.31
2019-06-10T16:13:16.483Z,29.28
2019-06-10T16:15:49.004Z,29.15
2019-06-10T16:18:25.929Z,29.10
2019-06-10T16:20:54.584Z,29.10
2019-06-10T16:23:26.775Z,29.01
2019-06-10T16:25:59.304Z,28.90
2019-06-10T16:28:32.864Z,28.90
2019-06-10T16:31:06.303Z,28.87
2019-06-10T16:33:37.753Z,28.86
2019-06-10T16:36:12.827Z,28.85
2019-06-10T16:38:44.542Z,28.81
2019-06-10T16:41:17.448Z,28.70
2019-06-10T16:43:49.232Z,28.66
2019-06-10T16:46:20.746Z,28.74
2019-06-10T16:48:53.021Z,28.68
2019-06-10T16:51:25.786Z,28.64
2019-06-10T16:53:57.545Z,28.54
2019-06-10T16:56:30.923Z,28.45
2019-06-10T16:59:02.951Z,28.45
2019-06-10T17:01:35.373Z,28.50
2019-06-10T17:04:07.136Z,28.48
2019-06-10T17:06:38.895Z,28.54
2019-06-10T17:09:13.293Z,28.52
2019-06-10T17:11:44.738Z,28.45
2019-06-10T17:14:16.313Z,28.38
2019-06-10T17:16:48.722Z,28.31
2019-06-10T17:19:26.320Z,28.25
2019-06-10T17:21:54.452Z,28.29
2019-06-10T17:24:27.642Z,28.20
2019-06-10T17:27:00.477Z,28.12
2019-06-10T17:29:33.616Z,27.99
2019-06-10T17:32:05.390Z,28.01
2019-06-10T17:34:37.663Z,27.97
2019-06-10T17:37:08.999Z,27.91
2019-06-10T17:39:42.744Z,27.91
2019-06-10T17:42:14.460Z,27.96
2019-06-10T17:44:46.337Z,27.89
2019-06-10T17:47:18.592Z,27.83
2019-06-10T17:49:50.350Z,27.80
2019-06-10T17:52:22.413Z,27.74
2019-06-10T17:54:54.099Z,27.75
2019-06-10T17:57:27.184Z,27.75
2019-06-10T18:00:00.154Z,27.66
2019-06-10T18:02:34.569Z,27.67
2019-06-10T18:05:08.081Z,27.57
2019-06-10T18:07:39.678Z,27.46
2019-06-10T18:10:13.223Z,27.42
2019-06-10T18:12:44.771Z,27.32
2019-06-10T18:15:16.935Z,27.41
2019-06-10T18:17:48.795Z,27.49
2019-06-10T18:34:37.874Z,27.40
2019-06-10T18:37:09.743Z,27.39
2019-06-10T18:39:42.993Z,27.35
2019-06-10T18:42:14.690Z,27.25
2019-06-10T18:44:46.636Z,27.17
2019-06-10T18:47:18.514Z,27.08
2019-06-10T18:49:52.724Z,27.01
2019-06-10T18:52:24.457Z,26.95
2019-06-10T18:54:55.918Z,26.83
2019-06-10T18:57:28.767Z,26.74
2019-06-10T19:00:02.910Z,26.67
2019-06-10T19:02:34.459Z,26.57
2019-06-10T19:05:13.577Z,26.43
2019-06-10T19:07:46.880Z,26.38
2019-06-10T19:10:18.950Z,26.22
2019-06-10T20:47:17.579Z,25.01
2019-06-10T20:49:51.864Z,24.89
2019-06-10T20:52:22.807Z,24.80
2019-06-10T20:54:54.267Z,24.68
2019-06-10T20:57:26.124Z,24.60
2019-06-10T20:59:57.992Z,24.53
2019-06-10T21:02:29.743Z,24.49
2019-06-10T21:05:02.771Z,24.40
2019-06-10T21:07:36.541Z,24.40
2019-06-10T21:10:09.728Z,24.33
2019-06-10T21:12:44.350Z,24.15
2019-06-10T21:15:14.482Z,24.05
2019-06-10T21:17:47.281Z,24.00
2019-06-10T21:20:19.231Z,23.97
2019-06-10T21:22:53.451Z,23.85
2019-06-10T21:25:23.871Z,23.72
2019-06-10T21:27:55.515Z,23.61
2019-06-10T21:30:38.545Z,23.62
2019-06-10T21:33:03.635Z,23.68
2019-06-10T21:35:36.031Z,23.65
2019-06-10T21:38:07.772Z,23.60
2019-06-10T21:40:39.524Z,23.65
2019-06-10T21:43:12.977Z,23.68
2019-06-10T21:45:49.944Z,23.68
2019-06-10T21:48:17.975Z,23.83
2019-06-10T21:50:53.515Z,23.79
2019-06-10T21:53:22.929Z,23.63
2019-06-10T21:55:55.269Z,23.54
2019-06-10T21:58:27.061Z,23.55
2019-06-10T22:01:11.616Z,23.55
2019-06-10T22:03:32.347Z,23.54
2019-06-10T22:06:04.278Z,23.54
2019-06-10T22:08:35.827Z,23.49
2019-06-10T22:11:07.589Z,23.41
2019-06-10T22:13:39.443Z,23.43
2019-06-10T22:16:11.657Z,23.37
2019-06-10T22:18:44.511Z,23.30
2019-06-10T22:21:16.361Z,23.22
2019-06-10T22:23:48.764Z,23.16
2019-06-10T22:26:22.491Z,23.15
2019-06-10T22:28:55.806Z,23.09
2019-06-10T22:31:27.491Z,23.03
2019-06-10T22:34:00.165Z,22.96
2019-06-10T22:36:32.688Z,22.86
2019-06-10T22:39:05.225Z,22.80
2019-06-10T22:41:36.667Z,22.72
2019-06-10T22:44:08.420Z,22.66
2019-06-10T22:46:42.374Z,22.55
2019-06-10T22:49:13.603Z,22.48
2019-06-10T22:51:45.334Z,22.42
2019-06-10T22:54:17.096Z,22.36
2019-06-10T22:56:49.447Z,22.35
2019-06-10T22:59:22.928Z,22.30
2019-06-10T23:01:56.296Z,22.28
2019-06-10T23:04:27.707Z,22.29
2019-06-10T23:07:00.596Z,22.41
2019-06-10T23:09:32.962Z,22.36
2019-06-10T23:12:07.529Z,22.33
2019-06-10T23:14:39.858Z,22.40
2019-06-10T23:17:14.041Z,22.39
2019-06-10T23:19:44.805Z,22.27
2019-06-10T23:22:16.568Z,22.23
2019-06-10T23:24:49.542Z,22.17
2019-06-10T23:27:22.283Z,22.16
2019-06-10T23:29:55.592Z,22.06
2019-06-10T23:32:26.880Z,22.06
2019-06-10T23:35:01.038Z,22.02
2019-06-10T23:37:32.543Z,22.05
2019-06-10T23:40:04.854Z,22.01
2019-06-10T23:42:36.263Z,21.96
2019-06-10T23:45:08.844Z,21.90
2019-06-10T23:47:43.150Z,21.93
2019-06-10T23:50:13.950Z,21.83
2019-06-10T23:52:45.364Z,21.90
2019-06-10T23:55:16.997Z,21.91
2019-06-10T23:57:48.549Z,21.87
